createdAt,value
2018-09-11T00:01:09.631Z,43.21
2018-09-11T00:03:35.967Z,43.16
2018-09-11T00:06:02.330Z,43.07
2018-09-11T00:08:28.668Z,43.22
2018-09-11T00:10:55.020Z,43.31
2018-09-11T00:13:21.385Z,43.18
2018-09-11T00:15:47.709Z,43.30
2018-09-11T00:18:14.103Z,43.22
2018-09-11T00:20:40.486Z,43.28
2018-09-11T00:23:06.809Z,43.32
2018-09-11T00:25:33.123Z,43.41
2018-09-11T00:27:59.447Z,43.43
2018-09-11T00:30:25.807Z,43.41
2018-09-11T00:32:52.148Z,43.44
2018-09-11T00:35:18.535Z,43.42
2018-09-11T00:37:44.867Z,43.43
2018-09-11T00:40:11.196Z,43.36
2018-09-11T00:42:37.570Z,43.55
2018-09-11T00:45:03.927Z,43.43
2018-09-11T00:47:30.633Z,43.53
2018-09-11T00:49:56.962Z,43.47
2018-09-11T00:52:23.364Z,43.48
2018-09-11T00:54:49.699Z,43.52
2018-09-11T00:57:16.023Z,43.58
2018-09-11T00:59:42.367Z,43.55
2018-09-11T01:02:08.714Z,43.51
2018-09-11T01:04:35.096Z,44.29
2018-09-11T01:07:01.481Z,44.74
2018-09-11T01:09:27.812Z,44.89
2018-09-11T01:11:54.236Z,45.17
2018-09-11T01:14:20.620Z,45.02
2018-09-11T01:16:46.932Z,45.06
2018-09-11T01:19:13.279Z,45.20
2018-09-11T01:21:39.657Z,45.30
2018-09-11T01:24:05.988Z,45.31
2018-09-11T01:26:32.299Z,45.48
2018-09-11T01:28:58.648Z,45.25
2018-09-11T01:31:24.988Z,45.66
2018-09-11T01:33:51.372Z,45.27
2018-09-11T01:36:17.692Z,45.51
2018-09-11T01:38:44.051Z,45.30
2018-09-11T01:41:10.383Z,45.41
2018-09-11T01:43:36.744Z,45.47
2018-09-11T01:46:03.093Z,45.09
2018-09-11T01:48:29.476Z,45.45
2018-09-11T01:50:55.787Z,45.37
2018-09-11T01:53:22.115Z,45.39
2018-09-11T01:55:48.454Z,45.52
2018-09-11T01:58:14.787Z,45.32
2018-09-11T02:00:41.183Z,45.37
2018-09-11T02:03:07.512Z,45.42
2018-09-11T02:05:33.880Z,45.65
2018-09-11T02:08:00.272Z,45.67
2018-09-11T02:10:26.690Z,45.54
2018-09-11T02:12:53.029Z,45.54
2018-09-11T02:15:19.391Z,45.61
2018-09-11T02:17:45.739Z,45.17
2018-09-11T02:20:12.115Z,45.53
2018-09-11T02:22:38.501Z,45.28
2018-09-11T02:25:04.865Z,45.53
2018-09-11T02:27:31.243Z,45.59
2018-09-11T02:29:57.582Z,45.44
2018-09-11T02:32:23.959Z,45.42
2018-09-11T02:34:50.290Z,45.74
2018-09-11T02:37:16.704Z,45.66
2018-09-11T02:39:43.120Z,45.62
2018-09-11T02:42:09.504Z,45.66
2018-09-11T02:44:35.832Z,45.55
2018-09-11T02:47:02.247Z,45.74
2018-09-11T02:49:28.575Z,45.57
2018-09-11T02:51:54.911Z,45.55
2018-09-11T02:54:21.345Z,45.76
2018-09-11T02:56:47.711Z,45.54
2018-09-11T02:59:14.041Z,45.66
2018-09-11T03:01:40.379Z,45.65
2018-09-11T03:04:06.744Z,45.73
2018-09-11T03:06:33.115Z,45.83
2018-09-11T03:08:59.456Z,45.77
2018-09-11T03:11:25.819Z,45.59
2018-09-11T03:13:52.154Z,45.68
2018-09-11T03:16:18.479Z,45.44
2018-09-11T03:18:44.896Z,45.28
2018-09-11T03:21:11.203Z,45.26
2018-09-11T03:23:37.638Z,45.05
2018-09-11T03:26:03.962Z,45.04
2018-09-11T03:28:30.372Z,45.07
2018-09-11T03:30:56.720Z,44.73
2018-09-11T03:33:23.061Z,44.68
2018-09-11T03:35:49.438Z,44.83
2018-09-11T03:38:15.820Z,44.54
2018-09-11T03:40:42.157Z,44.48
2018-09-11T03:43:08.475Z,44.19
2018-09-11T03:45:35.938Z,44.24
2018-09-11T03:48:02.336Z,44.40
2018-09-11T03:50:28.666Z,44.28
2018-09-11T03:52:55.120Z,44.45
2018-09-11T03:55:21.469Z,44.36
2018-09-11T03:57:47.800Z,44.24
2018-09-11T04:00:14.120Z,44.29
2018-09-11T04:02:40.443Z,44.33
2018-09-11T04:05:06.788Z,44.24
2018-09-11T04:07:33.120Z,44.25
2018-09-11T04:09:59.565Z,44.16
2018-09-11T04:12:25.887Z,44.28
2018-09-11T04:14:52.216Z,44.26
2018-09-11T04:17:18.552Z,44.17
2018-09-11T04:19:44.923Z,44.12
2018-09-11T04:22:11.256Z,44.05
2018-09-11T04:24:37.635Z,44.01
2018-09-11T04:27:04.069Z,43.98
2018-09-11T04:29:30.397Z,43.93
2018-09-11T04:31:56.773Z,43.76
2018-09-11T04:34:23.111Z,43.74
2018-09-11T04:36:49.471Z,43.76
2018-09-11T04:39:15.797Z,43.71
2018-09-11T04:41:42.159Z,43.69
2018-09-11T04:44:08.484Z,43.65
2018-09-11T04:46:34.820Z,43.60
2018-09-11T04:49:01.228Z,43.47
2018-09-11T04:51:27.589Z,43.49
2018-09-11T04:53:53.950Z,43.34
2018-09-11T04:56:20.348Z,43.44
2018-09-11T04:58:46.748Z,43.17
2018-09-11T05:01:13.075Z,43.18
2018-09-11T05:03:39.470Z,43.38
2018-09-11T05:06:05.853Z,43.26
2018-09-11T05:08:32.200Z,43.05
2018-09-11T05:10:58.587Z,42.92
2018-09-11T05:13:24.981Z,43.07
2018-09-11T05:15:51.329Z,42.91
2018-09-11T05:18:17.743Z,43.13
2018-09-11T05:20:44.120Z,43.05
2018-09-11T05:23:10.467Z,42.91
2018-09-11T05:25:36.791Z,42.83
2018-09-11T05:28:03.131Z,42.82
2018-09-11T05:30:29.468Z,42.72
2018-09-11T05:32:55.877Z,42.80
2018-09-11T05:35:22.509Z,42.71
2018-09-11T05:37:49.046Z,42.68
2018-09-11T05:40:15.546Z,42.70
2018-09-11T05:42:42.026Z,42.72
2018-09-11T05:45:08.383Z,42.60
2018-09-11T05:47:34.788Z,42.51
2018-09-11T05:50:01.314Z,42.53
2018-09-11T05:52:27.701Z,42.49
2018-09-11T05:54:54.033Z,42.50
2018-09-11T05:57:20.400Z,42.45
2018-09-11T05:59:46.735Z,42.46
2018-09-11T06:02:13.062Z,42.43
2018-09-11T06:04:39.407Z,42.32
2018-09-11T06:07:05.772Z,42.47
2018-09-11T06:09:32.258Z,42.49
2018-09-11T06:11:58.621Z,42.43
2018-09-11T06:14:25.234Z,42.20
2018-09-11T06:16:51.729Z,42.30
2018-09-11T06:19:18.370Z,42.20
2018-09-11T06:21:46.879Z,42.22
2018-09-11T06:24:13.255Z,42.25
2018-09-11T06:26:39.859Z,42.06
2018-09-11T06:29:06.451Z,42.18
2018-09-11T06:31:33.098Z,42.04
2018-09-11T06:33:59.439Z,42.07
2018-09-11T06:36:25.784Z,42.09
2018-09-11T06:38:52.132Z,41.96
2018-09-11T06:41:18.535Z,42.10
2018-09-11T06:43:44.860Z,41.89
2018-09-11T06:46:11.246Z,41.92
2018-09-11T06:48:37.597Z,41.89
2018-09-11T06:51:04.004Z,41.96
2018-09-11T06:53:30.386Z,41.86
2018-09-11T06:55:56.736Z,41.70
2018-09-11T06:58:23.093Z,41.66
2018-09-11T07:00:51.253Z,41.73
2018-09-11T07:03:17.789Z,41.66
2018-09-11T07:05:44.123Z,41.40
2018-09-11T07:08:10.471Z,41.52
2018-09-11T07:10:36.796Z,41.53
2018-09-11T07:13:03.240Z,41.53
2018-09-11T07:15:29.723Z,41.51
2018-09-11T07:17:56.126Z,41.52
2018-09-11T07:20:22.853Z,41.50
2018-09-11T07:22:48.827Z,41.31
2018-09-11T07:25:15.214Z,41.41
2018-09-11T07:27:41.566Z,41.36
2018-09-11T07:30:08.018Z,41.19
2018-09-11T07:32:34.486Z,41.25
2018-09-11T07:35:00.993Z,41.23
2018-09-11T07:37:27.484Z,40.80
2018-09-11T07:39:53.895Z,40.79
2018-09-11T07:42:20.329Z,40.82
2018-09-11T07:44:46.723Z,40.94
2018-09-11T07:47:13.047Z,40.82
2018-09-11T07:49:39.418Z,40.85
2018-09-11T07:52:05.805Z,40.83
2018-09-11T07:54:32.160Z,40.86
2018-09-11T07:56:58.504Z,40.89
2018-09-11T07:59:24.850Z,40.94
2018-09-11T08:01:51.237Z,41.20
2018-09-11T08:04:17.703Z,40.77
2018-09-11T08:06:44.040Z,40.47
2018-09-11T08:09:10.422Z,40.47
2018-09-11T08:11:36.861Z,40.46
2018-09-11T08:14:03.413Z,40.71
2018-09-11T08:16:29.877Z,40.43
2018-09-11T08:18:56.340Z,40.40
2018-09-11T08:21:22.678Z,40.45
2018-09-11T08:23:49.077Z,40.27
2018-09-11T08:26:15.435Z,39.95
2018-09-11T08:28:41.837Z,40.22
2018-09-11T08:31:08.205Z,40.06
2018-09-11T08:33:34.563Z,40.22
2018-09-11T08:36:00.984Z,39.99
2018-09-11T08:38:27.317Z,39.93
2018-09-11T08:40:53.770Z,40.16
2018-09-11T08:43:20.105Z,39.93
2018-09-11T08:45:46.514Z,40.02
2018-09-11T08:48:12.860Z,39.85
2018-09-11T08:50:39.185Z,40.24
2018-09-11T08:53:05.570Z,40.07
2018-09-11T08:55:31.934Z,40.11
2018-09-11T08:57:58.279Z,40.11
2018-09-11T09:00:24.610Z,40.09
2018-09-11T09:02:50.952Z,40.23
2018-09-11T09:05:17.361Z,40.02
2018-09-11T09:07:43.717Z,40.04
2018-09-11T09:10:10.234Z,39.99
2018-09-11T09:12:36.556Z,40.01
2018-09-11T09:15:02.982Z,39.82
2018-09-11T09:17:29.316Z,39.77
2018-09-11T09:19:55.882Z,39.82
2018-09-11T09:22:22.236Z,39.74
2018-09-11T09:24:48.646Z,39.82
2018-09-11T09:27:15.598Z,39.63
2018-09-11T09:29:41.917Z,39.78
2018-09-11T09:32:08.248Z,40.03
2018-09-11T09:34:34.613Z,39.76
2018-09-11T09:37:01.054Z,39.79
2018-09-11T09:39:27.403Z,39.63
2018-09-11T09:41:53.847Z,39.66
2018-09-11T09:44:20.163Z,39.80
2018-09-11T09:46:46.513Z,39.57
2018-09-11T09:49:13.692Z,39.58
2018-09-11T09:51:40.238Z,39.78
2018-09-11T09:54:06.572Z,39.52
2018-09-11T09:56:32.956Z,39.70
2018-09-11T09:58:59.325Z,39.86
2018-09-11T10:01:25.840Z,39.62
2018-09-11T10:03:52.179Z,39.43
2018-09-11T10:06:19.313Z,39.68
2018-09-11T10:08:45.647Z,39.70
2018-09-11T10:11:12.009Z,39.55
2018-09-11T10:13:38.346Z,39.66
2018-09-11T10:16:04.703Z,39.93
2018-09-11T10:18:31.060Z,39.98
2018-09-11T10:20:57.396Z,40.13
2018-09-11T10:23:23.739Z,39.90
2018-09-11T10:25:50.153Z,39.88
2018-09-11T10:28:16.702Z,39.77
2018-09-11T10:30:43.063Z,39.75
2018-09-11T10:33:10.173Z,39.86
2018-09-11T10:35:36.524Z,39.81
2018-09-11T10:38:02.885Z,39.89
2018-09-11T10:40:29.283Z,39.78
2018-09-11T10:42:55.667Z,39.79
2018-09-11T10:45:22.019Z,40.03
2018-09-11T10:47:48.364Z,39.78
2018-09-11T10:50:14.887Z,39.78
2018-09-11T10:52:41.276Z,39.56
2018-09-11T10:55:07.651Z,40.06
2018-09-11T10:57:34.063Z,39.90
2018-09-11T11:00:00.596Z,40.03
2018-09-11T11:02:26.949Z,39.79
2018-09-11T11:04:53.384Z,39.93
2018-09-11T11:07:19.783Z,39.98
2018-09-11T11:09:46.134Z,39.79
2018-09-11T11:12:12.530Z,39.81
2018-09-11T11:14:38.903Z,39.93
2018-09-11T11:17:05.325Z,40.02
2018-09-11T11:19:31.731Z,39.99
2018-09-11T11:21:58.088Z,39.96
2018-09-11T11:24:24.540Z,40.00
2018-09-11T11:26:50.925Z,39.96
2018-09-11T11:29:17.251Z,39.91
2018-09-11T11:31:43.611Z,39.94
2018-09-11T11:34:10.065Z,40.16
2018-09-11T11:36:36.629Z,40.18
2018-09-11T11:39:02.930Z,40.04
2018-09-11T11:41:29.329Z,40.13
2018-09-11T11:43:55.739Z,40.21
2018-09-11T11:46:22.100Z,40.07
2018-09-11T11:48:48.432Z,40.24
2018-09-11T11:51:14.801Z,40.26
2018-09-11T11:53:41.271Z,40.04
2018-09-11T11:56:07.840Z,40.34
2018-09-11T11:58:34.216Z,39.97
2018-09-11T12:01:00.626Z,39.77
2018-09-11T12:03:26.992Z,39.72
2018-09-11T12:05:53.493Z,39.64
2018-09-11T12:08:19.893Z,39.98
2018-09-11T12:10:46.251Z,40.00
2018-09-11T12:13:12.626Z,39.78
2018-09-11T12:15:39.057Z,39.61
2018-09-11T12:18:05.414Z,39.61
2018-09-11T12:20:31.844Z,39.44
2018-09-11T12:22:58.315Z,38.85
2018-09-11T12:25:24.692Z,38.79
2018-09-11T12:27:51.076Z,38.44
2018-09-11T12:30:17.509Z,38.45
2018-09-11T12:32:44.215Z,38.03
2018-09-11T12:35:10.710Z,38.10
2018-09-11T12:37:37.654Z,38.12
2018-09-11T12:40:04.009Z,37.77
2018-09-11T12:42:30.466Z,37.51
2018-09-11T12:44:56.850Z,37.47
2018-09-11T12:47:23.525Z,37.28
2018-09-11T12:49:49.790Z,37.16
2018-09-11T12:52:16.137Z,36.67
2018-09-11T12:54:42.623Z,36.42
2018-09-11T12:57:08.999Z,36.52
2018-09-11T12:59:35.336Z,36.23
2018-09-11T13:02:01.936Z,36.23
2018-09-11T13:04:28.342Z,36.13
2018-09-11T13:06:54.755Z,35.81
2018-09-11T13:09:21.161Z,35.65
2018-09-11T13:11:47.520Z,35.82
2018-09-11T13:14:13.902Z,35.92
2018-09-11T13:16:40.284Z,35.79
2018-09-11T13:19:07.269Z,35.49
2018-09-11T13:21:34.100Z,36.04
2018-09-11T13:24:00.450Z,35.83
2018-09-11T13:26:26.891Z,35.62
2018-09-11T13:28:53.234Z,35.47
2018-09-11T13:31:19.567Z,35.71
2018-09-11T13:33:46.021Z,35.45
2018-09-11T13:36:12.464Z,35.77
2018-09-11T13:38:38.936Z,35.67
2018-09-11T13:41:05.311Z,35.54
2018-09-11T13:43:31.680Z,35.57
2018-09-11T13:45:58.020Z,35.58
2018-09-11T13:48:24.347Z,35.41
2018-09-11T13:50:50.781Z,35.66
2018-09-11T13:53:17.130Z,35.46
2018-09-11T13:55:43.526Z,35.36
2018-09-11T13:58:09.945Z,35.38
2018-09-11T14:00:36.326Z,35.20
2018-09-11T14:03:02.783Z,35.54
2018-09-11T14:05:29.920Z,35.30
2018-09-11T14:07:56.246Z,35.29
2018-09-11T14:10:22.641Z,35.32
2018-09-11T14:12:49.017Z,35.33
2018-09-11T14:15:15.355Z,35.61
2018-09-11T14:17:41.713Z,35.61
2018-09-11T14:20:08.073Z,35.51
2018-09-11T14:22:34.416Z,35.53
2018-09-11T14:25:00.835Z,35.47
2018-09-11T14:27:27.179Z,35.48
2018-09-11T14:29:53.581Z,35.36
2018-09-11T14:32:19.920Z,35.24
2018-09-11T14:34:46.305Z,35.50
2018-09-11T14:37:12.733Z,35.48
2018-09-11T14:39:39.122Z,35.61
2018-09-11T14:42:05.465Z,35.49
2018-09-11T14:44:31.809Z,35.50
2018-09-11T14:46:58.147Z,35.44
2018-09-11T14:49:24.547Z,35.85
2018-09-11T14:51:50.973Z,35.77
2018-09-11T14:54:17.365Z,35.86
2018-09-11T14:56:43.853Z,35.85
2018-09-11T14:59:10.425Z,35.94
2018-09-11T15:01:37.012Z,35.75
2018-09-11T15:04:03.502Z,35.86
2018-09-11T15:06:29.887Z,35.95
2018-09-11T15:08:56.536Z,36.12
2018-09-11T15:11:23.009Z,36.18
2018-09-11T15:13:49.385Z,36.18
2018-09-11T15:16:15.973Z,36.31
2018-09-11T15:18:42.353Z,36.74
2018-09-11T15:21:08.756Z,36.33
2018-09-11T15:23:35.084Z,36.36
2018-09-11T15:26:01.488Z,36.50
2018-09-11T15:28:27.935Z,36.43
2018-09-11T15:30:54.349Z,36.42
2018-09-11T15:33:20.780Z,36.44
2018-09-11T15:35:47.162Z,36.58
2018-09-11T15:38:13.781Z,36.61
2018-09-11T15:40:40.158Z,36.79
2018-09-11T15:43:06.856Z,37.00
2018-09-11T15:45:33.253Z,37.06
2018-09-11T15:47:59.591Z,36.92
2018-09-11T15:50:25.919Z,36.90
2018-09-11T15:52:52.264Z,37.02
2018-09-11T15:55:18.627Z,37.16
2018-09-11T15:57:44.973Z,37.15
2018-09-11T16:00:11.374Z,37.00
2018-09-11T16:02:37.700Z,37.17
2018-09-11T16:05:04.041Z,37.19
2018-09-11T16:07:30.379Z,37.33
2018-09-11T16:09:56.712Z,37.39
2018-09-11T16:12:23.111Z,37.38
2018-09-11T16:14:49.470Z,37.50
2018-09-11T16:17:15.810Z,37.67
2018-09-11T16:19:42.259Z,37.64
2018-09-11T16:22:08.627Z,37.68
2018-09-11T16:24:34.927Z,37.58
2018-09-11T16:27:01.261Z,37.92
2018-09-11T16:29:27.644Z,38.21
2018-09-11T16:31:53.980Z,38.03
2018-09-11T16:34:20.300Z,38.22
2018-09-11T16:36:46.650Z,38.19
2018-09-11T16:39:12.981Z,38.30
2018-09-11T16:41:39.341Z,38.40
2018-09-11T16:44:05.692Z,38.61
2018-09-11T16:46:32.397Z,38.59
2018-09-11T16:48:58.783Z,38.59
2018-09-11T16:51:25.147Z,38.77
2018-09-11T16:53:51.534Z,38.83
2018-09-11T16:56:17.948Z,39.06
2018-09-11T16:58:44.290Z,39.06
2018-09-11T17:01:10.662Z,39.06
2018-09-11T17:03:37.022Z,39.19
2018-09-11T17:06:03.408Z,39.19
2018-09-11T17:08:29.847Z,39.31
2018-09-11T17:10:56.179Z,39.33
2018-09-11T17:13:22.571Z,39.38
2018-09-11T17:15:48.894Z,39.37
2018-09-11T17:18:15.246Z,39.41
2018-09-11T17:20:41.678Z,39.49
2018-09-11T17:23:08.026Z,39.45
2018-09-11T17:25:34.411Z,39.58
2018-09-11T17:28:00.735Z,39.63
2018-09-11T17:30:27.108Z,39.69
2018-09-11T17:32:53.481Z,39.72
2018-09-11T17:35:19.821Z,39.76
2018-09-11T17:37:46.199Z,39.78
2018-09-11T17:40:12.537Z,39.75
2018-09-11T17:42:38.986Z,39.76
2018-09-11T17:45:05.348Z,39.74
2018-09-11T17:47:31.709Z,39.77
2018-09-11T17:49:58.083Z,39.80
2018-09-11T17:52:24.425Z,39.95
2018-09-11T17:54:50.786Z,39.96
2018-09-11T17:57:17.121Z,40.04
2018-09-11T17:59:43.476Z,40.01
2018-09-11T18:02:09.858Z,40.05
2018-09-11T18:04:36.239Z,40.08
2018-09-11T18:07:02.596Z,39.85
2018-09-11T18:09:28.996Z,39.82
2018-09-11T18:11:55.399Z,40.13
2018-09-11T18:14:21.783Z,39.66
2018-09-11T18:16:48.139Z,39.93
2018-09-11T18:19:14.523Z,39.82
2018-09-11T18:21:40.887Z,40.02
2018-09-11T18:24:07.212Z,39.89
2018-09-11T18:26:33.638Z,39.91
2018-09-11T18:28:59.971Z,39.31
2018-09-11T18:31:26.360Z,39.90
2018-09-11T18:33:52.738Z,39.63
2018-09-11T18:36:19.085Z,39.59
2018-09-11T18:38:45.480Z,39.80
2018-09-11T18:41:11.824Z,39.74
2018-09-11T18:43:38.146Z,39.82
2018-09-11T18:46:04.473Z,39.91
2018-09-11T18:48:30.818Z,40.12
2018-09-11T18:50:57.161Z,39.91
2018-09-11T18:53:23.500Z,39.85
2018-09-11T18:55:49.869Z,40.12
2018-09-11T18:58:16.230Z,40.17
2018-09-11T19:00:42.581Z,40.04
2018-09-11T19:03:08.921Z,40.23
2018-09-11T19:05:35.350Z,40.22
2018-09-11T19:08:01.684Z,39.99
2018-09-11T19:10:28.012Z,40.13
2018-09-11T19:12:54.476Z,40.37
2018-09-11T19:15:20.749Z,40.40
2018-09-11T19:17:47.100Z,40.42
2018-09-11T19:20:13.465Z,40.44
2018-09-11T19:22:39.816Z,40.53
2018-09-11T19:25:06.146Z,40.40
2018-09-11T19:27:32.468Z,40.58
2018-09-11T19:29:58.840Z,40.55
2018-09-11T19:32:25.174Z,40.60
2018-09-11T19:34:51.520Z,40.77
2018-09-11T19:37:17.836Z,40.67
2018-09-11T19:39:44.153Z,40.89
2018-09-11T19:42:10.539Z,40.83
2018-09-11T19:44:36.854Z,40.80
2018-09-11T19:47:03.268Z,40.81
2018-09-11T19:49:29.652Z,41.00
2018-09-11T19:51:56.025Z,40.89
2018-09-11T19:54:22.388Z,40.88
2018-09-11T19:56:48.848Z,40.99
2018-09-11T19:59:15.180Z,40.95
2018-09-11T20:01:41.540Z,40.92
2018-09-11T20:04:07.944Z,41.18
2018-09-11T20:06:34.280Z,41.16
2018-09-11T20:09:00.595Z,41.27
2018-09-11T20:11:26.935Z,41.13
2018-09-11T20:13:53.261Z,41.08
2018-09-11T20:16:19.643Z,41.18
2018-09-11T20:18:46.008Z,41.28
2018-09-11T20:21:12.330Z,41.13
2018-09-11T20:23:38.655Z,41.17
2018-09-11T20:26:04.989Z,41.21
2018-09-11T20:28:31.379Z,41.27
2018-09-11T20:30:57.714Z,41.20
2018-09-11T20:33:24.043Z,41.19
2018-09-11T20:35:50.373Z,41.37
2018-09-11T20:38:16.703Z,41.31
2018-09-11T20:40:43.038Z,41.46
2018-09-11T20:43:09.431Z,41.24
2018-09-11T20:45:35.775Z,41.25
2018-09-11T20:48:02.239Z,41.33
2018-09-11T20:50:28.565Z,41.23
2018-09-11T20:52:54.884Z,41.38
2018-09-11T20:55:21.221Z,41.33
2018-09-11T20:57:47.555Z,41.37
2018-09-11T21:00:13.923Z,41.47
2018-09-11T21:02:40.256Z,41.37
2018-09-11T21:05:06.648Z,41.47
2018-09-11T21:07:33.021Z,41.54
2018-09-11T21:09:59.359Z,41.50
2018-09-11T21:12:25.747Z,41.62
2018-09-11T21:14:52.076Z,41.52
2018-09-11T21:17:18.578Z,41.50
2018-09-11T21:19:44.927Z,41.52
2018-09-11T21:22:11.250Z,41.62
2018-09-11T21:24:37.575Z,41.64
2018-09-11T21:27:03.939Z,41.59
2018-09-11T21:29:30.268Z,41.62
2018-09-11T21:31:56.625Z,41.74
2018-09-11T21:34:23.031Z,41.63
2018-09-11T21:36:50.187Z,41.74
2018-09-11T21:39:16.516Z,41.70
2018-09-11T21:41:42.861Z,41.75
2018-09-11T21:44:09.188Z,41.74
2018-09-11T21:46:35.543Z,41.79
2018-09-11T21:49:01.876Z,41.81
2018-09-11T21:51:28.243Z,41.90
2018-09-11T21:53:54.584Z,41.91
2018-09-11T21:56:20.969Z,41.93
2018-09-11T21:58:47.295Z,41.93
2018-09-11T22:01:13.631Z,42.00
2018-09-11T22:03:39.959Z,42.00
2018-09-11T22:06:06.348Z,42.05
2018-09-11T22:08:32.720Z,42.16
2018-09-11T22:10:59.047Z,42.09
2018-09-11T22:13:25.445Z,42.08
2018-09-11T22:15:51.788Z,42.14
2018-09-11T22:18:18.116Z,42.14
2018-09-11T22:20:44.448Z,42.20
2018-09-11T22:23:10.780Z,42.29
2018-09-11T22:25:37.145Z,42.22
2018-09-11T22:28:03.502Z,42.25
2018-09-11T22:30:29.904Z,42.24
2018-09-11T22:32:56.241Z,42.30
2018-09-11T22:35:22.600Z,42.34
2018-09-11T22:37:49.255Z,42.46
2018-09-11T22:40:15.605Z,42.38
2018-09-11T22:42:41.989Z,42.47
2018-09-11T22:45:08.312Z,42.46
2018-09-11T22:47:34.640Z,42.58
2018-09-11T22:50:00.954Z,42.46
2018-09-11T22:52:27.282Z,42.46
2018-09-11T22:54:53.612Z,42.55
2018-09-11T22:57:19.982Z,42.58
2018-09-11T22:59:46.335Z,42.53
2018-09-11T23:02:12.748Z,42.63
2018-09-11T23:04:39.094Z,42.62
2018-09-11T23:07:05.408Z,42.82
2018-09-11T23:09:31.768Z,42.77
2018-09-11T23:11:58.091Z,42.70
2018-09-11T23:14:24.475Z,42.67
2018-09-11T23:16:50.820Z,42.80
2018-09-11T23:19:17.140Z,42.82
2018-09-11T23:21:43.469Z,42.78
2018-09-11T23:24:09.848Z,42.78
2018-09-11T23:26:36.224Z,42.84
2018-09-11T23:29:02.595Z,42.86
2018-09-11T23:31:28.920Z,42.88
2018-09-11T23:33:55.322Z,42.85
2018-09-11T23:36:21.684Z,42.81
2018-09-11T23:38:48.057Z,42.86
2018-09-11T23:41:14.420Z,42.97
2018-09-11T23:43:40.868Z,42.87
2018-09-11T23:46:07.295Z,43.02
2018-09-11T23:48:33.622Z,42.92
2018-09-11T23:50:59.953Z,43.03
2018-09-11T23:53:26.320Z,43.08
2018-09-11T23:55:52.680Z,43.07
2018-09-11T23:58:19.064Z,42.97
